createdAt,value
2022-10-25T00:01:22.022Z,9.92
2022-10-25T00:03:50.380Z,9.91
2022-10-25T00:06:20.131Z,9.91
2022-10-25T00:08:48.167Z,9.90
2022-10-25T00:11:21.031Z,9.91
2022-10-25T00:13:50.119Z,9.89
2022-10-25T00:16:20.722Z,9.86
2022-10-25T00:18:49.081Z,9.85
2022-10-25T00:21:17.151Z,9.81
2022-10-25T00:23:46.604Z,9.76
2022-10-25T00:26:14.896Z,9.74
2022-10-25T00:28:43.003Z,9.70
2022-10-25T00:31:12.462Z,9.66
2022-10-25T00:33:41.964Z,9.60
2022-10-25T00:36:12.034Z,9.59
2022-10-25T00:38:40.831Z,9.58
2022-10-25T00:41:11.398Z,9.56
2022-10-25T00:43:42.075Z,9.56
2022-10-25T00:46:15.327Z,9.52
2022-10-25T00:48:46.822Z,9.51
2022-10-25T00:51:14.950Z,9.51
2022-10-25T00:53:43.539Z,9.51
2022-10-25T00:56:17.948Z,9.51
2022-10-25T00:58:51.649Z,9.53
2022-10-25T01:01:20.086Z,9.55
2022-10-25T01:03:51.576Z,9.52
2022-10-25T01:06:24.614Z,9.51
2022-10-25T01:08:54.484Z,9.47
2022-10-25T01:11:23.943Z,9.44
2022-10-25T01:13:53.655Z,9.42
2022-10-25T01:16:29.605Z,9.41
2022-10-25T01:19:05.061Z,9.39
2022-10-25T01:21:46.206Z,9.38
2022-10-25T01:24:52.214Z,9.37
2022-10-25T01:27:53.845Z,9.35
2022-10-25T01:30:24.611Z,9.34
2022-10-25T01:33:09.330Z,9.30
2022-10-25T01:35:44.124Z,9.26
2022-10-25T01:38:30.441Z,9.25
2022-10-25T01:41:09.964Z,9.23
2022-10-25T01:43:46.602Z,9.22
2022-10-25T01:46:22.123Z,9.20
2022-10-25T01:48:56.534Z,9.21
2022-10-25T01:51:28.683Z,9.22
2022-10-25T01:53:56.876Z,9.26
2022-10-25T01:56:28.832Z,9.27
2022-10-25T01:59:19.894Z,9.28
2022-10-25T02:02:02.862Z,9.32
2022-10-25T02:04:42.966Z,9.32
2022-10-25T02:07:15.940Z,9.32
2022-10-25T02:09:53.017Z,9.28
2022-10-25T02:12:26.491Z,9.30
2022-10-25T02:15:05.636Z,9.30
2022-10-25T02:17:36.046Z,9.28
2022-10-25T02:20:07.951Z,9.26
2022-10-25T02:22:38.713Z,9.23
2022-10-25T02:25:09.601Z,9.21
2022-10-25T02:27:40.604Z,9.18
2022-10-25T02:30:09.789Z,9.16
2022-10-25T02:32:38.147Z,9.20
2022-10-25T02:35:14.618Z,9.22
2022-10-25T02:37:43.581Z,9.21
2022-10-25T02:40:13.434Z,9.21
2022-10-25T02:42:41.694Z,9.19
2022-10-25T02:45:10.622Z,9.18
2022-10-25T02:47:38.761Z,9.17
2022-10-25T02:50:08.788Z,9.15
2022-10-25T02:52:36.823Z,9.11
2022-10-25T02:55:05.526Z,9.08
2022-10-25T02:57:34.811Z,9.07
2022-10-25T03:00:03.721Z,9.07
2022-10-25T03:02:31.796Z,9.07
2022-10-25T03:04:59.891Z,9.04
2022-10-25T03:07:29.318Z,9.03
2022-10-25T03:09:57.326Z,9.02
2022-10-25T03:12:25.379Z,9.00
2022-10-25T03:14:53.372Z,8.96
2022-10-25T03:17:21.364Z,8.97
2022-10-25T03:19:49.352Z,8.96
2022-10-25T03:22:17.388Z,8.95
2022-10-25T03:24:46.983Z,8.98
2022-10-25T03:27:14.990Z,8.98
2022-10-25T03:29:43.173Z,8.97
2022-10-25T03:32:11.222Z,8.97
2022-10-25T03:34:39.192Z,8.99
2022-10-25T03:37:07.216Z,9.00
2022-10-25T03:39:35.199Z,9.00
2022-10-25T03:42:04.630Z,9.01
2022-10-25T03:44:32.656Z,8.98
2022-10-25T03:47:00.731Z,8.98
2022-10-25T03:49:28.748Z,9.00
2022-10-25T03:51:58.882Z,9.01
2022-10-25T03:54:29.534Z,9.07
2022-10-25T03:56:57.627Z,9.09
2022-10-25T03:59:27.198Z,9.08
2022-10-25T04:01:55.654Z,9.08
2022-10-25T04:04:23.789Z,9.04
2022-10-25T04:06:51.802Z,9.05
2022-10-25T04:09:23.607Z,9.04
2022-10-25T04:11:51.647Z,9.08
2022-10-25T04:14:19.749Z,9.10
2022-10-25T04:16:49.178Z,9.11
2022-10-25T04:19:17.943Z,9.08
2022-10-25T04:21:46.052Z,9.07
2022-10-25T04:24:14.335Z,9.04
2022-10-25T04:26:42.894Z,9.00
2022-10-25T04:29:12.615Z,9.00
2022-10-25T04:31:40.697Z,9.03
2022-10-25T04:34:10.213Z,9.05
2022-10-25T04:36:39.139Z,9.04
2022-10-25T04:39:07.340Z,9.01
2022-10-25T04:41:35.624Z,8.98
2022-10-25T04:44:03.902Z,8.94
2022-10-25T04:46:31.972Z,8.85
2022-10-25T04:49:00.209Z,8.77
2022-10-25T04:51:29.800Z,8.70
2022-10-25T04:53:58.003Z,8.64
2022-10-25T04:56:27.050Z,8.59
2022-10-25T04:58:55.213Z,8.53
2022-10-25T05:01:24.780Z,8.48
2022-10-25T05:03:53.168Z,8.44
2022-10-25T05:06:23.462Z,8.44
2022-10-25T05:08:53.787Z,8.42
2022-10-25T05:11:23.280Z,8.42
2022-10-25T05:13:51.399Z,8.43
2022-10-25T05:16:22.806Z,8.45
2022-10-25T05:18:51.537Z,8.46
2022-10-25T05:21:20.211Z,8.46
2022-10-25T05:23:48.596Z,8.44
2022-10-25T05:26:24.349Z,8.41
2022-10-25T05:28:55.460Z,8.36
2022-10-25T05:31:25.223Z,8.32
2022-10-25T05:33:55.009Z,8.28
2022-10-25T05:36:23.816Z,8.27
2022-10-25T05:38:51.858Z,8.27
2022-10-25T05:41:21.276Z,8.26
2022-10-25T05:43:49.345Z,8.28
2022-10-25T05:46:19.628Z,8.23
2022-10-25T05:48:49.306Z,8.25
2022-10-25T05:51:36.349Z,8.21
2022-10-25T05:54:06.364Z,8.20
2022-10-25T05:56:37.228Z,8.18
2022-10-25T05:59:08.986Z,8.16
2022-10-25T06:01:38.229Z,8.14
2022-10-25T06:04:07.153Z,8.13
2022-10-25T06:06:35.341Z,8.15
2022-10-25T06:09:04.631Z,8.16
2022-10-25T06:11:33.037Z,8.18
2022-10-25T06:14:02.479Z,8.23
2022-10-25T06:16:30.536Z,8.31
2022-10-25T06:18:58.959Z,8.36
2022-10-25T06:21:29.067Z,8.44
2022-10-25T06:23:57.154Z,8.51
2022-10-25T06:26:27.115Z,8.58
2022-10-25T06:28:56.858Z,8.63
2022-10-25T06:31:26.685Z,8.65
2022-10-25T06:33:54.811Z,8.67
2022-10-25T06:36:24.622Z,8.68
2022-10-25T06:38:53.206Z,8.68
2022-10-25T06:41:22.554Z,8.72
2022-10-25T06:43:50.886Z,8.73
2022-10-25T06:46:23.606Z,8.75
2022-10-25T06:48:54.606Z,8.76
2022-10-25T06:51:23.632Z,8.78
2022-10-25T06:53:56.038Z,8.78
2022-10-25T06:56:24.725Z,8.78
2022-10-25T06:58:53.057Z,8.76
2022-10-25T07:01:23.801Z,8.76
2022-10-25T07:03:54.039Z,8.76
2022-10-25T07:06:23.831Z,8.79
2022-10-25T07:08:54.946Z,8.84
2022-10-25T07:11:24.993Z,8.90
2022-10-25T07:13:53.344Z,8.97
2022-10-25T07:16:22.559Z,9.07
2022-10-25T07:18:50.780Z,9.14
2022-10-25T07:21:22.201Z,9.29
2022-10-25T07:23:51.302Z,9.37
2022-10-25T07:26:21.915Z,9.53
2022-10-25T07:28:51.413Z,9.65
2022-10-25T07:31:22.886Z,9.74
2022-10-25T07:33:52.531Z,9.80
2022-10-25T07:36:22.221Z,9.84
2022-10-25T07:38:50.226Z,9.83
2022-10-25T07:41:18.251Z,9.81
2022-10-25T07:43:46.573Z,9.82
2022-10-25T07:46:14.865Z,9.82
2022-10-25T07:48:44.034Z,9.85
2022-10-25T07:51:14.069Z,9.89
2022-10-25T07:53:44.119Z,9.97
2022-10-25T07:56:17.495Z,10.07
2022-10-25T07:58:49.043Z,10.20
2022-10-25T08:01:21.223Z,10.34
2022-10-25T08:03:49.551Z,10.45
2022-10-25T08:06:19.556Z,10.63
2022-10-25T08:08:49.520Z,10.81
2022-10-25T08:11:18.008Z,10.98
2022-10-25T08:13:49.120Z,11.11
2022-10-25T08:16:17.217Z,11.19
2022-10-25T08:18:45.494Z,11.29
2022-10-25T08:21:13.713Z,11.38
2022-10-25T08:23:41.987Z,11.51
2022-10-25T08:26:11.601Z,11.66
2022-10-25T08:28:40.784Z,11.77
2022-10-25T08:31:10.463Z,11.90
2022-10-25T08:33:38.474Z,12.04
2022-10-25T08:36:09.516Z,12.17
2022-10-25T08:38:37.622Z,12.33
2022-10-25T08:41:15.686Z,12.48
2022-10-25T08:43:58.098Z,12.64
2022-10-25T08:46:31.574Z,12.77
2022-10-25T08:49:07.997Z,12.89
2022-10-25T08:51:38.774Z,12.93
2022-10-25T08:54:17.497Z,12.94
2022-10-25T08:56:56.951Z,12.98
2022-10-25T08:59:40.936Z,13.03
2022-10-25T09:02:18.795Z,13.10
2022-10-25T09:04:48.811Z,13.18
2022-10-25T09:07:38.457Z,13.30
2022-10-25T09:10:21.179Z,13.44
2022-10-25T09:12:58.617Z,13.51
2022-10-25T09:15:43.312Z,13.56
2022-10-25T09:18:17.663Z,13.58
2022-10-25T09:20:50.799Z,13.57
2022-10-25T09:23:28.074Z,13.51
2022-10-25T09:26:06.346Z,13.47
2022-10-25T09:28:48.555Z,13.41
2022-10-25T09:31:23.465Z,13.33
2022-10-25T09:34:01.579Z,13.21
2022-10-25T09:36:38.261Z,13.10
2022-10-25T09:39:15.890Z,13.07
2022-10-25T09:41:47.672Z,13.07
2022-10-25T09:44:24.917Z,13.09
2022-10-25T09:46:58.821Z,13.10
2022-10-25T09:49:35.152Z,13.09
2022-10-25T09:52:14.269Z,13.19
2022-10-25T09:54:48.149Z,13.25
2022-10-25T09:57:16.182Z,13.33
2022-10-25T09:59:45.687Z,13.47
2022-10-25T10:02:24.766Z,13.55
2022-10-25T10:04:53.708Z,13.61
2022-10-25T10:07:26.043Z,13.66
2022-10-25T10:09:58.523Z,13.73
2022-10-25T10:12:33.084Z,13.78
2022-10-25T10:18:22.675Z,13.88
2022-10-25T10:21:02.991Z,13.88
2022-10-25T10:23:34.034Z,13.89
2022-10-25T10:26:03.987Z,13.94
2022-10-25T10:28:32.768Z,13.96
2022-10-25T10:31:01.847Z,13.95
2022-10-25T10:33:33.587Z,14.03
2022-10-25T10:36:26.506Z,14.14
2022-10-25T10:38:55.326Z,14.25
2022-10-25T10:41:27.188Z,14.35
2022-10-25T10:44:09.806Z,14.43
2022-10-25T10:46:38.041Z,14.48
2022-10-25T10:49:07.586Z,14.58
2022-10-25T10:51:44.077Z,14.68
2022-10-25T10:54:28.403Z,14.81
2022-10-25T10:56:58.794Z,14.94
2022-10-25T10:59:36.579Z,14.96
2022-10-25T11:02:23.953Z,14.98
2022-10-25T11:04:55.186Z,15.05
2022-10-25T11:07:32.553Z,15.13
2022-10-25T11:10:20.322Z,15.20
2022-10-25T11:13:06.679Z,15.25
2022-10-25T11:15:53.274Z,15.36
2022-10-25T11:18:27.911Z,15.61
2022-10-25T11:21:03.534Z,16.14
2022-10-25T11:23:40.118Z,16.65
2022-10-25T11:26:16.292Z,16.98
2022-10-25T11:28:52.067Z,17.04
2022-10-25T11:31:28.412Z,17.08
2022-10-25T11:34:11.369Z,17.14
2022-10-25T11:36:49.458Z,17.05
2022-10-25T11:39:34.575Z,16.80
2022-10-25T11:42:17.040Z,16.56
2022-10-25T11:45:07.233Z,16.51
2022-10-25T11:47:45.401Z,16.48
2022-10-25T11:50:24.735Z,16.56
2022-10-25T11:53:12.446Z,16.44
2022-10-25T11:55:44.397Z,16.30
2022-10-25T11:58:25.736Z,16.32
2022-10-25T12:01:03.833Z,16.45
2022-10-25T12:03:49.195Z,16.43
2022-10-25T12:06:23.981Z,16.38
2022-10-25T12:09:03.353Z,16.34
2022-10-25T12:11:33.545Z,16.32
2022-10-25T12:14:02.670Z,16.33
2022-10-25T12:16:32.086Z,16.34
2022-10-25T12:19:09.195Z,16.34
2022-10-25T12:21:43.904Z,16.42
2022-10-25T12:24:23.022Z,16.42
2022-10-25T12:26:54.492Z,16.54
2022-10-25T12:29:27.679Z,16.78
2022-10-25T12:31:58.346Z,17.00
2022-10-25T12:34:36.077Z,17.09
2022-10-25T12:37:08.477Z,16.99
2022-10-25T12:39:41.659Z,16.84
2022-10-25T12:42:17.503Z,16.65
2022-10-25T12:45:15.333Z,16.50
2022-10-25T12:47:55.030Z,16.48
2022-10-25T12:50:51.689Z,16.36
2022-10-25T12:53:50.915Z,16.15
2022-10-25T12:56:33.838Z,15.98
2022-10-25T12:59:09.507Z,15.94
2022-10-25T13:01:56.378Z,16.05
2022-10-25T13:04:39.224Z,16.19
2022-10-25T13:07:09.440Z,16.33
2022-10-25T13:09:38.520Z,16.37
2022-10-25T13:12:19.534Z,16.30
2022-10-25T13:14:50.872Z,16.26
2022-10-25T13:18:00.106Z,16.31
2022-10-25T13:20:51.489Z,16.53
2022-10-25T13:23:50.225Z,16.59
2022-10-25T13:26:21.775Z,16.45
2022-10-25T13:28:53.177Z,16.32
2022-10-25T13:31:48.000Z,16.19
2022-10-25T13:34:35.739Z,16.13
2022-10-25T13:37:32.046Z,16.14
2022-10-25T13:40:02.222Z,16.21
2022-10-25T13:42:32.605Z,16.25
2022-10-25T13:45:08.172Z,16.30
2022-10-25T13:47:39.445Z,16.31
2022-10-25T13:53:03.091Z,16.44
2022-10-25T13:55:37.491Z,16.47
2022-10-25T13:58:41.196Z,16.61
2022-10-25T14:01:38.977Z,16.79
2022-10-25T14:04:24.800Z,16.91
2022-10-25T14:06:54.258Z,16.90
2022-10-25T14:09:28.799Z,16.78
2022-10-25T14:12:13.777Z,16.63
2022-10-25T14:14:58.186Z,16.43
2022-10-25T14:17:33.559Z,16.29
2022-10-25T14:20:08.971Z,16.23
2022-10-25T14:22:43.374Z,16.15
2022-10-25T14:25:22.649Z,16.12
2022-10-25T14:27:50.748Z,16.06
2022-10-25T14:30:28.446Z,16.01
2022-10-25T14:32:58.240Z,15.93
2022-10-25T14:35:34.897Z,15.84
2022-10-25T14:38:04.078Z,15.75
2022-10-25T14:40:35.515Z,15.65
2022-10-25T14:43:24.020Z,15.65
2022-10-25T14:46:12.392Z,15.64
2022-10-25T14:48:41.259Z,15.64
2022-10-25T14:51:19.833Z,15.58
2022-10-25T14:53:58.987Z,15.59
2022-10-25T14:56:30.913Z,15.60
2022-10-25T14:59:00.998Z,15.56
2022-10-25T15:01:29.410Z,15.48
2022-10-25T15:04:00.309Z,15.41
2022-10-25T15:06:32.749Z,15.30
2022-10-25T15:09:40.664Z,15.18
2022-10-25T15:12:16.773Z,15.01
2022-10-25T15:14:46.761Z,14.96
2022-10-25T15:17:18.996Z,14.89
2022-10-25T15:20:04.185Z,14.78
2022-10-25T15:22:42.600Z,14.72
2022-10-25T15:25:28.989Z,14.79
2022-10-25T15:28:09.934Z,14.86
2022-10-25T15:30:40.499Z,14.89
2022-10-25T15:33:12.288Z,14.87
2022-10-25T15:35:48.823Z,14.85
2022-10-25T15:38:18.820Z,14.82
2022-10-25T15:40:47.923Z,14.80
2022-10-25T15:43:17.677Z,14.77
2022-10-25T15:45:46.135Z,14.76
2022-10-25T15:48:16.829Z,14.76
2022-10-25T15:50:49.136Z,14.80
2022-10-25T15:53:18.732Z,14.81
2022-10-25T15:55:47.197Z,14.83
2022-10-25T15:58:15.239Z,14.84
2022-10-25T16:00:44.182Z,14.82
2022-10-25T16:03:25.265Z,14.75
2022-10-25T16:05:55.045Z,14.69
2022-10-25T16:08:24.516Z,14.61
2022-10-25T16:10:53.062Z,14.60
2022-10-25T16:13:27.738Z,14.57
2022-10-25T16:15:55.884Z,14.51
2022-10-25T16:20:59.226Z,14.36
2022-10-25T16:23:28.642Z,14.35
2022-10-25T16:25:57.262Z,14.34
2022-10-25T16:30:59.576Z,14.31
2022-10-25T16:33:29.885Z,14.28
2022-10-25T16:35:57.885Z,14.23
2022-10-25T16:38:27.102Z,14.17
2022-10-25T16:40:57.543Z,14.11
2022-10-25T16:43:25.526Z,14.07
2022-10-25T16:45:53.550Z,14.07
2022-10-25T16:48:23.569Z,14.06
2022-10-25T16:50:53.995Z,13.99
2022-10-25T16:53:21.991Z,13.97
2022-10-25T16:55:49.998Z,13.98
2022-10-25T16:58:19.453Z,13.99
2022-10-25T17:00:50.512Z,13.98
2022-10-25T17:03:18.537Z,14.01
2022-10-25T17:05:46.593Z,14.02
2022-10-25T17:08:14.641Z,13.99
2022-10-25T17:10:45.296Z,13.97
2022-10-25T17:13:16.267Z,13.92
2022-10-25T17:15:47.288Z,13.88
2022-10-25T17:18:21.098Z,13.81
2022-10-25T17:20:50.314Z,13.76
2022-10-25T17:23:18.309Z,13.72
2022-10-25T17:25:48.534Z,13.66
2022-10-25T17:28:16.339Z,13.61
2022-10-25T17:30:46.076Z,13.57
2022-10-25T17:33:14.166Z,13.52
2022-10-25T17:35:42.555Z,13.47
2022-10-25T17:38:10.842Z,13.43
2022-10-25T17:40:39.328Z,13.42
2022-10-25T17:43:07.369Z,13.41
2022-10-25T17:45:38.628Z,13.41
2022-10-25T17:48:09.440Z,13.42
2022-10-25T17:50:41.120Z,13.41
2022-10-25T17:53:18.822Z,13.41
2022-10-25T17:55:49.315Z,13.43
2022-10-25T17:58:17.401Z,13.44
2022-10-25T18:00:45.448Z,13.45
2022-10-25T18:03:17.812Z,13.44
2022-10-25T18:05:45.811Z,13.45
2022-10-25T18:08:13.930Z,13.46
2022-10-25T18:10:43.921Z,13.47
2022-10-25T18:13:12.146Z,13.48
2022-10-25T18:15:40.276Z,13.50
2022-10-25T18:18:08.339Z,13.51
2022-10-25T18:20:40.573Z,13.54
2022-10-25T18:23:09.556Z,13.54
2022-10-25T18:25:37.866Z,13.54
2022-10-25T18:28:06.011Z,13.52
2022-10-25T18:30:35.101Z,13.50
2022-10-25T18:33:03.194Z,13.48
2022-10-25T18:35:33.695Z,13.48
2022-10-25T18:38:04.531Z,13.47
2022-10-25T18:40:37.010Z,13.48
2022-10-25T18:43:05.187Z,13.46
2022-10-25T18:45:36.705Z,13.46
2022-10-25T18:48:05.201Z,13.43
2022-10-25T18:50:39.163Z,13.41
2022-10-25T18:53:11.555Z,13.40
2022-10-25T18:55:39.688Z,13.39
2022-10-25T18:58:08.046Z,13.36
2022-10-25T19:01:00.481Z,13.33
2022-10-25T19:03:36.236Z,13.35
2022-10-25T19:06:32.784Z,13.29
2022-10-25T19:09:06.439Z,13.31
2022-10-25T19:11:35.396Z,13.30
2022-10-25T19:14:05.390Z,13.29
2022-10-25T19:16:33.796Z,13.29
2022-10-25T19:19:03.792Z,13.31
2022-10-25T19:21:32.272Z,13.38
2022-10-25T19:24:02.067Z,13.41
2022-10-25T19:26:31.210Z,13.43
2022-10-25T19:29:01.044Z,13.47
2022-10-25T19:31:33.067Z,13.46
2022-10-25T19:34:06.403Z,13.43
2022-10-25T19:36:34.702Z,13.42
2022-10-25T19:39:05.586Z,13.42
2022-10-25T19:41:38.079Z,13.42
2022-10-25T19:44:06.920Z,13.42
2022-10-25T19:46:41.569Z,13.43
2022-10-25T19:49:12.141Z,13.45
2022-10-25T19:51:40.482Z,13.45
2022-10-25T19:54:11.374Z,13.46
2022-10-25T19:56:39.566Z,13.46
2022-10-25T19:59:08.109Z,13.48
2022-10-25T20:01:36.695Z,13.49
2022-10-25T20:04:05.725Z,13.50
2022-10-25T20:09:27.097Z,13.50
2022-10-25T20:12:19.427Z,13.49
2022-10-25T20:14:47.884Z,13.52
2022-10-25T20:17:16.351Z,13.53
2022-10-25T20:19:44.574Z,13.54
2022-10-25T20:22:12.747Z,13.55
2022-10-25T20:24:42.541Z,13.57
2022-10-25T20:27:10.652Z,13.56
2022-10-25T20:29:40.137Z,13.54
2022-10-25T20:32:08.705Z,13.54
2022-10-25T20:34:38.648Z,13.55
2022-10-25T20:37:08.808Z,13.53
2022-10-25T20:39:37.009Z,13.54
2022-10-25T20:42:06.725Z,13.56
2022-10-25T20:44:36.737Z,13.55
2022-10-25T20:47:05.094Z,13.57
2022-10-25T20:49:34.322Z,13.59
2022-10-25T20:52:08.660Z,13.58
2022-10-25T20:54:37.107Z,13.59
2022-10-25T20:57:08.691Z,13.59
2022-10-25T20:59:36.799Z,13.59
2022-10-25T21:02:07.360Z,13.60
2022-10-25T21:04:42.744Z,13.61
2022-10-25T21:07:21.465Z,13.64
2022-10-25T21:09:49.743Z,13.66
2022-10-25T21:12:19.758Z,13.66
2022-10-25T21:14:48.074Z,13.66
2022-10-25T21:17:16.282Z,13.67
2022-10-25T21:19:44.375Z,13.67
2022-10-25T21:22:12.486Z,13.67
2022-10-25T21:24:40.691Z,13.70
2022-10-25T21:27:10.572Z,13.68
2022-10-25T21:29:40.127Z,13.69
2022-10-25T21:32:08.212Z,13.68
2022-10-25T21:34:36.291Z,13.72
2022-10-25T21:37:04.316Z,13.72
2022-10-25T21:39:32.503Z,13.74
2022-10-25T21:42:00.590Z,13.71
2022-10-25T21:44:28.926Z,13.70
2022-10-25T21:46:58.418Z,13.70
2022-10-25T21:49:26.490Z,13.71
2022-10-25T21:51:54.515Z,13.71
2022-10-25T21:54:22.664Z,13.67
2022-10-25T21:56:52.607Z,13.65
2022-10-25T21:59:20.768Z,13.63
2022-10-25T22:01:49.263Z,13.63
2022-10-25T22:04:18.828Z,13.64
2022-10-25T22:06:46.877Z,13.61
2022-10-25T22:09:14.916Z,13.58
2022-10-25T22:11:42.965Z,13.59
2022-10-25T22:14:13.519Z,13.57
2022-10-25T22:16:42.129Z,13.58
2022-10-25T22:19:14.679Z,13.56
2022-10-25T22:21:45.219Z,13.56
2022-10-25T22:24:14.085Z,13.56
2022-10-25T22:26:47.119Z,13.58
2022-10-25T22:29:16.267Z,13.56
2022-10-25T22:31:44.277Z,13.56
2022-10-25T22:34:12.307Z,13.57
2022-10-25T22:36:42.059Z,13.56
2022-10-25T22:39:11.629Z,13.55
2022-10-25T22:41:39.736Z,13.55
2022-10-25T22:44:07.893Z,13.55
2022-10-25T22:46:37.122Z,13.55
2022-10-25T22:49:08.175Z,13.56
2022-10-25T22:51:37.578Z,13.55
2022-10-25T22:54:05.997Z,13.54
2022-10-25T22:56:35.740Z,13.54
2022-10-25T22:59:05.462Z,13.54
2022-10-25T23:01:35.276Z,13.47
2022-10-25T23:04:04.712Z,13.44
2022-10-25T23:06:34.694Z,13.43
2022-10-25T23:09:04.947Z,13.45
2022-10-25T23:11:33.853Z,13.44
2022-10-25T23:14:03.750Z,13.44
2022-10-25T23:16:31.975Z,13.42
2022-10-25T23:19:00.189Z,13.40
2022-10-25T23:21:30.305Z,13.39
2022-10-25T23:23:58.854Z,13.40
2022-10-25T23:26:29.277Z,13.42
2022-10-25T23:28:57.701Z,13.45
2022-10-25T23:31:27.616Z,13.49
2022-10-25T23:33:57.313Z,13.50
2022-10-25T23:36:26.887Z,13.54
2022-10-25T23:38:56.515Z,13.56
2022-10-25T23:41:24.880Z,13.59
2022-10-25T23:43:52.949Z,13.60
2022-10-25T23:46:22.612Z,13.60
2022-10-25T23:48:52.203Z,13.60
2022-10-25T23:51:21.604Z,13.61
2022-10-25T23:53:50.347Z,13.63
2022-10-25T23:56:18.419Z,13.63
2022-10-25T23:58:50.480Z,13.65
